sensor_id;sensor_type;location;lat;lon;timestamp;temperature;humidity
76936;DHT22;65881;52.438;16.744;2024-03-29T00:01:23;7.00;99.90
76936;DHT22;65881;52.438;16.744;2024-03-29T00:03:49;7.00;99.90
76936;DHT22;65881;52.438;16.744;2024-03-29T00:06:15;6.90;99.90
76936;DHT22;65881;52.438;16.744;2024-03-29T00:08:41;6.90;99.90
76936;DHT22;65881;52.438;16.744;2024-03-29T00:11:06;6.90;99.90
76936;DHT22;65881;52.438;16.744;2024-03-29T00:13:32;6.90;99.90
76936;DHT22;65881;52.438;16.744;2024-03-29T00:15:58;6.90;99.90
76936;DHT22;65881;52.438;16.744;2024-03-29T00:18:24;6.80;99.90
76936;DHT22;65881;52.438;16.744;2024-03-29T00:20:49;6.80;99.90
76936;DHT22;65881;52.438;16.744;2024-03-29T00:23:15;6.80;99.90
76936;DHT22;65881;52.438;16.744;2024-03-29T00:25:41;6.80;99.90
76936;DHT22;65881;52.438;16.744;2024-03-29T00:28:06;6.70;99.90
76936;DHT22;65881;52.438;16.744;2024-03-29T00:30:32;6.70;99.90
76936;DHT22;65881;52.438;16.744;2024-03-29T00:32:58;6.70;99.90
76936;DHT22;65881;52.438;16.744;2024-03-29T00:35:24;6.60;99.90
76936;DHT22;65881;52.438;16.744;2024-03-29T00:37:50;6.60;99.90
76936;DHT22;65881;52.438;16.744;2024-03-29T00:40:18;6.50;99.90
76936;DHT22;65881;52.438;16.744;2024-03-29T00:42:44;6.50;99.90
76936;DHT22;65881;52.438;16.744;2024-03-29T00:45:09;6.50;99.90
76936;DHT22;65881;52.438;16.744;2024-03-29T00:47:35;6.40;99.90
76936;DHT22;65881;52.438;16.744;2024-03-29T00:50:01;6.40;99.90
76936;DHT22;65881;52.438;16.744;2024-03-29T00:52:27;6.40;99.90
76936;DHT22;65881;52.438;16.744;2024-03-29T00:54:52;6.40;99.90
76936;DHT22;65881;52.438;16.744;2024-03-29T00:57:18;6.40;99.90
76936;DHT22;65881;52.438;16.744;2024-03-29T00:59:44;6.30;99.90
76936;DHT22;65881;52.438;16.744;2024-03-29T01:02:10;6.30;99.90
76936;DHT22;65881;52.438;16.744;2024-03-29T01:04:36;6.30;99.90
76936;DHT22;65881;52.438;16.744;2024-03-29T01:07:03;6.30;99.90
76936;DHT22;65881;52.438;16.744;2024-03-29T01:09:29;6.40;99.90
76936;DHT22;65881;52.438;16.744;2024-03-29T01:11:55;6.40;99.90
76936;DHT22;65881;52.438;16.744;2024-03-29T01:14:21;6.50;99.90
76936;DHT22;65881;52.438;16.744;2024-03-29T01:16:46;6.50;99.90
76936;DHT22;65881;52.438;16.744;2024-03-29T01:19:12;6.60;99.90
76936;DHT22;65881;52.438;16.744;2024-03-29T01:21:38;6.70;99.90
76936;DHT22;65881;52.438;16.744;2024-03-29T01:24:04;6.70;99.90
76936;DHT22;65881;52.438;16.744;2024-03-29T01:26:30;6.70;99.90
76936;DHT22;65881;52.438;16.744;2024-03-29T01:28:56;6.70;99.90
76936;DHT22;65881;52.438;16.744;2024-03-29T01:31:24;6.80;99.90
76936;DHT22;65881;52.438;16.744;2024-03-29T01:33:51;6.80;99.90
76936;DHT22;65881;52.438;16.744;2024-03-29T01:36:17;6.90;99.90
76936;DHT22;65881;52.438;16.744;2024-03-29T01:38:42;7.00;99.90
76936;DHT22;65881;52.438;16.744;2024-03-29T01:41:11;7.20;99.90
76936;DHT22;65881;52.438;16.744;2024-03-29T01:43:37;7.40;99.90
76936;DHT22;65881;52.438;16.744;2024-03-29T01:46:04;7.40;99.90
76936;DHT22;65881;52.438;16.744;2024-03-29T01:48:33;7.50;99.90
76936;DHT22;65881;52.438;16.744;2024-03-29T01:51:00;7.40;99.90
76936;DHT22;65881;52.438;16.744;2024-03-29T01:53:26;7.40;99.90
76936;DHT22;65881;52.438;16.744;2024-03-29T01:55:52;7.30;99.90
76936;DHT22;65881;52.438;16.744;2024-03-29T01:58:20;7.30;99.90
76936;DHT22;65881;52.438;16.744;2024-03-29T02:00:56;7.20;99.90
76936;DHT22;65881;52.438;16.744;2024-03-29T02:03:23;7.20;99.90
76936;DHT22;65881;52.438;16.744;2024-03-29T02:05:50;7.20;99.90
76936;DHT22;65881;52.438;16.744;2024-03-29T02:08:16;7.10;99.90
76936;DHT22;65881;52.438;16.744;2024-03-29T02:10:43;7.00;99.90
76936;DHT22;65881;52.438;16.744;2024-03-29T02:13:09;6.90;99.90
76936;DHT22;65881;52.438;16.744;2024-03-29T02:15:35;6.70;99.90
76936;DHT22;65881;52.438;16.744;2024-03-29T02:18:02;6.60;99.90
76936;DHT22;65881;52.438;16.744;2024-03-29T02:20:30;6.50;99.90
76936;DHT22;65881;52.438;16.744;2024-03-29T02:23:06;6.40;99.90
76936;DHT22;65881;52.438;16.744;2024-03-29T02:25:32;6.30;99.90
76936;DHT22;65881;52.438;16.744;2024-03-29T02:28:01;6.30;99.90
76936;DHT22;65881;52.438;16.744;2024-03-29T02:30:29;6.20;99.90
76936;DHT22;65881;52.438;16.744;2024-03-29T02:32:59;6.20;99.90
76936;DHT22;65881;52.438;16.744;2024-03-29T02:35:25;6.20;99.90
76936;DHT22;65881;52.438;16.744;2024-03-29T02:37:52;6.20;99.90
76936;DHT22;65881;52.438;16.744;2024-03-29T02:40:20;6.10;99.90
76936;DHT22;65881;52.438;16.744;2024-03-29T02:42:48;6.00;99.90
76936;DHT22;65881;52.438;16.744;2024-03-29T02:45:14;5.90;99.90
76936;DHT22;65881;52.438;16.744;2024-03-29T02:47:40;5.80;99.90
76936;DHT22;65881;52.438;16.744;2024-03-29T02:50:08;5.80;99.90
76936;DHT22;65881;52.438;16.744;2024-03-29T02:52:34;5.70;99.90
76936;DHT22;65881;52.438;16.744;2024-03-29T02:55:00;5.70;99.90
76936;DHT22;65881;52.438;16.744;2024-03-29T02:57:25;5.60;99.90
76936;DHT22;65881;52.438;16.744;2024-03-29T02:59:51;5.60;99.90
76936;DHT22;65881;52.438;16.744;2024-03-29T03:02:17;5.50;99.90
76936;DHT22;65881;52.438;16.744;2024-03-29T03:04:42;5.50;99.90
76936;DHT22;65881;52.438;16.744;2024-03-29T03:07:08;5.50;99.90
76936;DHT22;65881;52.438;16.744;2024-03-29T03:09:53;5.50;99.90
76936;DHT22;65881;52.438;16.744;2024-03-29T03:12:37;5.50;99.90
76936;DHT22;65881;52.438;16.744;2024-03-29T03:15:03;5.50;99.90
76936;DHT22;65881;52.438;16.744;2024-03-29T03:17:30;5.60;99.90
76936;DHT22;65881;52.438;16.744;2024-03-29T03:19:57;5.50;99.90
76936;DHT22;65881;52.438;16.744;2024-03-29T03:22:23;5.60;99.90
76936;DHT22;65881;52.438;16.744;2024-03-29T03:24:49;5.50;99.90
76936;DHT22;65881;52.438;16.744;2024-03-29T03:27:16;5.50;99.90
76936;DHT22;65881;52.438;16.744;2024-03-29T03:29:42;5.50;99.90
76936;DHT22;65881;52.438;16.744;2024-03-29T03:32:07;5.50;99.90
76936;DHT22;65881;52.438;16.744;2024-03-29T03:34:36;5.30;99.90
76936;DHT22;65881;52.438;16.744;2024-03-29T03:37:12;5.20;99.90
76936;DHT22;65881;52.438;16.744;2024-03-29T03:39:38;5.20;99.90
76936;DHT22;65881;52.438;16.744;2024-03-29T03:42:04;5.10;99.90
76936;DHT22;65881;52.438;16.744;2024-03-29T03:44:30;5.00;99.90
76936;DHT22;65881;52.438;16.744;2024-03-29T03:46:56;4.90;99.90
76936;DHT22;65881;52.438;16.744;2024-03-29T03:49:22;4.90;99.90
76936;DHT22;65881;52.438;16.744;2024-03-29T03:51:47;4.70;99.90
76936;DHT22;65881;52.438;16.744;2024-03-29T03:54:13;4.70;99.90
76936;DHT22;65881;52.438;16.744;2024-03-29T03:56:39;4.70;99.90
76936;DHT22;65881;52.438;16.744;2024-03-29T03:59:04;4.70;99.90
76936;DHT22;65881;52.438;16.744;2024-03-29T04:01:30;4.80;99.90
76936;DHT22;65881;52.438;16.744;2024-03-29T04:03:56;4.80;99.90
76936;DHT22;65881;52.438;16.744;2024-03-29T04:06:21;4.70;99.90
76936;DHT22;65881;52.438;16.744;2024-03-29T04:08:47;4.80;99.90
76936;DHT22;65881;52.438;16.744;2024-03-29T04:11:13;4.80;99.90
76936;DHT22;65881;52.438;16.744;2024-03-29T04:13:42;4.90;99.90
76936;DHT22;65881;52.438;16.744;2024-03-29T04:16:08;4.90;99.90
76936;DHT22;65881;52.438;16.744;2024-03-29T04:18:34;4.90;99.90
76936;DHT22;65881;52.438;16.744;2024-03-29T04:21:00;4.90;99.90
76936;DHT22;65881;52.438;16.744;2024-03-29T04:23:26;4.90;99.90
76936;DHT22;65881;52.438;16.744;2024-03-29T04:25:56;4.90;99.90
76936;DHT22;65881;52.438;16.744;2024-03-29T04:28:22;4.90;99.90
76936;DHT22;65881;52.438;16.744;2024-03-29T04:30:55;4.90;99.90
76936;DHT22;65881;52.438;16.744;2024-03-29T04:33:21;4.80;99.90
76936;DHT22;65881;52.438;16.744;2024-03-29T04:35:55;4.80;99.90
76936;DHT22;65881;52.438;16.744;2024-03-29T04:38:21;4.80;99.90
76936;DHT22;65881;52.438;16.744;2024-03-29T04:40:48;4.70;99.90
76936;DHT22;65881;52.438;16.744;2024-03-29T04:43:15;4.70;99.90
76936;DHT22;65881;52.438;16.744;2024-03-29T04:45:40;4.70;99.90
76936;DHT22;65881;52.438;16.744;2024-03-29T04:48:06;4.70;99.90
76936;DHT22;65881;52.438;16.744;2024-03-29T04:50:32;4.70;99.90
76936;DHT22;65881;52.438;16.744;2024-03-29T04:52:58;4.60;99.90
76936;DHT22;65881;52.438;16.744;2024-03-29T04:55:23;4.60;99.90
76936;DHT22;65881;52.438;16.744;2024-03-29T04:57:49;4.60;99.90
76936;DHT22;65881;52.438;16.744;2024-03-29T05:00:15;4.60;99.90
76936;DHT22;65881;52.438;16.744;2024-03-29T05:02:41;4.60;99.90
76936;DHT22;65881;52.438;16.744;2024-03-29T05:05:07;4.50;99.90
76936;DHT22;65881;52.438;16.744;2024-03-29T05:07:32;4.50;99.90
76936;DHT22;65881;52.438;16.744;2024-03-29T05:09:58;4.60;99.90
76936;DHT22;65881;52.438;16.744;2024-03-29T05:12:25;4.70;99.90
76936;DHT22;65881;52.438;16.744;2024-03-29T05:14:50;4.70;99.90
76936;DHT22;65881;52.438;16.744;2024-03-29T05:17:16;4.70;99.90
76936;DHT22;65881;52.438;16.744;2024-03-29T05:19:43;4.70;99.90
76936;DHT22;65881;52.438;16.744;2024-03-29T05:22:09;4.80;99.90
76936;DHT22;65881;52.438;16.744;2024-03-29T05:24:34;4.90;99.90
76936;DHT22;65881;52.438;16.744;2024-03-29T05:27:00;5.00;99.90
76936;DHT22;65881;52.438;16.744;2024-03-29T05:29:27;5.00;99.90
76936;DHT22;65881;52.438;16.744;2024-03-29T05:31:54;5.00;99.90
76936;DHT22;65881;52.438;16.744;2024-03-29T05:34:20;5.10;99.90
76936;DHT22;65881;52.438;16.744;2024-03-29T05:36:45;5.40;99.90
76936;DHT22;65881;52.438;16.744;2024-03-29T05:39:11;5.50;99.90
76936;DHT22;65881;52.438;16.744;2024-03-29T05:41:38;5.80;99.90
76936;DHT22;65881;52.438;16.744;2024-03-29T05:44:04;6.00;99.90
76936;DHT22;65881;52.438;16.744;2024-03-29T05:46:32;6.10;99.90
76936;DHT22;65881;52.438;16.744;2024-03-29T05:48:57;6.30;99.90
76936;DHT22;65881;52.438;16.744;2024-03-29T05:51:23;6.30;99.90
76936;DHT22;65881;52.438;16.744;2024-03-29T05:53:49;6.20;99.90
76936;DHT22;65881;52.438;16.744;2024-03-29T05:56:14;6.40;99.90
76936;DHT22;65881;52.438;16.744;2024-03-29T05:58:41;6.50;99.90
76936;DHT22;65881;52.438;16.744;2024-03-29T06:01:07;6.70;99.90
76936;DHT22;65881;52.438;16.744;2024-03-29T06:03:35;6.90;99.90
76936;DHT22;65881;52.438;16.744;2024-03-29T06:06:00;7.00;99.90
76936;DHT22;65881;52.438;16.744;2024-03-29T06:08:26;7.00;99.90
76936;DHT22;65881;52.438;16.744;2024-03-29T06:10:52;7.00;99.90
76936;DHT22;65881;52.438;16.744;2024-03-29T06:13:18;7.00;99.90
76936;DHT22;65881;52.438;16.744;2024-03-29T06:16:13;7.00;99.90
76936;DHT22;65881;52.438;16.744;2024-03-29T06:18:57;7.00;99.90
76936;DHT22;65881;52.438;16.744;2024-03-29T06:21:23;7.00;99.90
76936;DHT22;65881;52.438;16.744;2024-03-29T06:23:48;7.00;99.90
76936;DHT22;65881;52.438;16.744;2024-03-29T06:26:14;7.20;99.90
76936;DHT22;65881;52.438;16.744;2024-03-29T06:28:40;7.20;99.90
76936;DHT22;65881;52.438;16.744;2024-03-29T06:31:05;7.30;99.90
76936;DHT22;65881;52.438;16.744;2024-03-29T06:33:31;7.40;99.90
76936;DHT22;65881;52.438;16.744;2024-03-29T06:35:57;7.30;99.90
76936;DHT22;65881;52.438;16.744;2024-03-29T06:38:22;7.40;99.90
76936;DHT22;65881;52.438;16.744;2024-03-29T06:40:48;7.40;99.90
76936;DHT22;65881;52.438;16.744;2024-03-29T06:43:14;7.40;99.90
76936;DHT22;65881;52.438;16.744;2024-03-29T06:45:40;7.50;99.90
76936;DHT22;65881;52.438;16.744;2024-03-29T06:48:08;7.50;99.90
76936;DHT22;65881;52.438;16.744;2024-03-29T06:50:36;7.50;99.90
76936;DHT22;65881;52.438;16.744;2024-03-29T06:53:02;7.80;99.90
76936;DHT22;65881;52.438;16.744;2024-03-29T06:55:28;8.10;99.90
76936;DHT22;65881;52.438;16.744;2024-03-29T06:57:53;8.30;99.90
76936;DHT22;65881;52.438;16.744;2024-03-29T07:00:19;8.50;99.90
76936;DHT22;65881;52.438;16.744;2024-03-29T07:02:45;8.50;99.90
76936;DHT22;65881;52.438;16.744;2024-03-29T07:05:11;8.60;99.90
76936;DHT22;65881;52.438;16.744;2024-03-29T07:07:37;8.50;99.90
76936;DHT22;65881;52.438;16.744;2024-03-29T07:10:04;8.60;99.90
76936;DHT22;65881;52.438;16.744;2024-03-29T07:12:32;8.60;99.90
76936;DHT22;65881;52.438;16.744;2024-03-29T07:14:58;8.60;99.90
76936;DHT22;65881;52.438;16.744;2024-03-29T07:17:24;8.60;99.90
76936;DHT22;65881;52.438;16.744;2024-03-29T07:19:50;8.70;99.90
76936;DHT22;65881;52.438;16.744;2024-03-29T07:22:16;8.90;99.90
76936;DHT22;65881;52.438;16.744;2024-03-29T07:24:41;9.00;99.90
76936;DHT22;65881;52.438;16.744;2024-03-29T07:27:07;9.00;99.90
76936;DHT22;65881;52.438;16.744;2024-03-29T07:29:34;9.20;97.80
76936;DHT22;65881;52.438;16.744;2024-03-29T07:32:00;9.20;97.10
76936;DHT22;65881;52.438;16.744;2024-03-29T07:34:27;9.50;93.50
76936;DHT22;65881;52.438;16.744;2024-03-29T07:36:52;9.60;89.60
76936;DHT22;65881;52.438;16.744;2024-03-29T07:39:18;9.70;91.30
76936;DHT22;65881;52.438;16.744;2024-03-29T07:41:45;9.70;88.40
76936;DHT22;65881;52.438;16.744;2024-03-29T07:44:11;9.60;87.80
76936;DHT22;65881;52.438;16.744;2024-03-29T07:46:37;9.70;87.70
76936;DHT22;65881;52.438;16.744;2024-03-29T07:49:05;9.80;86.80
76936;DHT22;65881;52.438;16.744;2024-03-29T07:51:31;10.00;87.00
76936;DHT22;65881;52.438;16.744;2024-03-29T07:53:56;10.00;84.90
76936;DHT22;65881;52.438;16.744;2024-03-29T07:56:22;10.30;84.60
76936;DHT22;65881;52.438;16.744;2024-03-29T07:58:53;10.40;83.90
76936;DHT22;65881;52.438;16.744;2024-03-29T08:01:23;10.50;81.70
76936;DHT22;65881;52.438;16.744;2024-03-29T08:03:52;10.60;83.70
76936;DHT22;65881;52.438;16.744;2024-03-29T08:06:21;10.80;83.90
76936;DHT22;65881;52.438;16.744;2024-03-29T08:08:49;11.10;81.10
76936;DHT22;65881;52.438;16.744;2024-03-29T08:11:15;11.10;82.50
76936;DHT22;65881;52.438;16.744;2024-03-29T08:13:41;11.40;78.70
76936;DHT22;65881;52.438;16.744;2024-03-29T08:16:07;11.70;76.20
76936;DHT22;65881;52.438;16.744;2024-03-29T08:18:33;11.70;74.00
76936;DHT22;65881;52.438;16.744;2024-03-29T08:20:59;11.70;73.70
76936;DHT22;65881;52.438;16.744;2024-03-29T08:23:25;11.70;73.40
76936;DHT22;65881;52.438;16.744;2024-03-29T08:25:51;11.70;72.10
76936;DHT22;65881;52.438;16.744;2024-03-29T08:28:20;11.70;73.50
76936;DHT22;65881;52.438;16.744;2024-03-29T08:30:46;12.00;73.60
76936;DHT22;65881;52.438;16.744;2024-03-29T08:33:12;12.10;71.10
76936;DHT22;65881;52.438;16.744;2024-03-29T08:35:37;12.00;69.20
76936;DHT22;65881;52.438;16.744;2024-03-29T08:38:14;12.00;70.60
76936;DHT22;65881;52.438;16.744;2024-03-29T08:40:41;12.40;70.70
76936;DHT22;65881;52.438;16.744;2024-03-29T08:43:09;12.50;68.70
76936;DHT22;65881;52.438;16.744;2024-03-29T08:45:35;12.30;69.00
76936;DHT22;65881;52.438;16.744;2024-03-29T08:48:07;12.30;69.60
76936;DHT22;65881;52.438;16.744;2024-03-29T08:50:33;12.50;71.10
76936;DHT22;65881;52.438;16.744;2024-03-29T08:52:59;12.70;69.20
76936;DHT22;65881;52.438;16.744;2024-03-29T08:55:25;12.80;69.40
76936;DHT22;65881;52.438;16.744;2024-03-29T08:57:51;13.00;68.70
76936;DHT22;65881;52.438;16.744;2024-03-29T09:00:17;13.00;66.70
76936;DHT22;65881;52.438;16.744;2024-03-29T09:02:43;13.10;67.00
76936;DHT22;65881;52.438;16.744;2024-03-29T09:05:10;13.30;64.80
76936;DHT22;65881;52.438;16.744;2024-03-29T09:07:35;13.60;66.40
76936;DHT22;65881;52.438;16.744;2024-03-29T09:10:02;14.10;63.60
76936;DHT22;65881;52.438;16.744;2024-03-29T09:12:29;14.40;62.30
76936;DHT22;65881;52.438;16.744;2024-03-29T09:14:55;14.40;60.80
76936;DHT22;65881;52.438;16.744;2024-03-29T09:17:22;14.10;58.30
76936;DHT22;65881;52.438;16.744;2024-03-29T09:19:51;13.90;61.80
76936;DHT22;65881;52.438;16.744;2024-03-29T09:22:20;13.90;59.80
76936;DHT22;65881;52.438;16.744;2024-03-29T09:24:46;13.70;59.80
76936;DHT22;65881;52.438;16.744;2024-03-29T09:27:13;13.80;59.70
76936;DHT22;65881;52.438;16.744;2024-03-29T09:29:39;14.10;60.20
76936;DHT22;65881;52.438;16.744;2024-03-29T09:32:05;14.30;58.70
76936;DHT22;65881;52.438;16.744;2024-03-29T09:34:30;14.60;57.80
76936;DHT22;65881;52.438;16.744;2024-03-29T09:36:56;15.00;57.80
76936;DHT22;65881;52.438;16.744;2024-03-29T09:39:23;15.50;57.60
76936;DHT22;65881;52.438;16.744;2024-03-29T09:41:49;15.50;53.50
76936;DHT22;65881;52.438;16.744;2024-03-29T09:44:16;15.20;53.90
76936;DHT22;65881;52.438;16.744;2024-03-29T09:46:43;15.50;54.40
76936;DHT22;65881;52.438;16.744;2024-03-29T09:49:09;15.60;51.10
76936;DHT22;65881;52.438;16.744;2024-03-29T09:51:37;15.70;52.70
76936;DHT22;65881;52.438;16.744;2024-03-29T09:54:05;16.00;52.60
76936;DHT22;65881;52.438;16.744;2024-03-29T09:56:33;16.00;52.70
76936;DHT22;65881;52.438;16.744;2024-03-29T09:59:00;16.10;52.90
76936;DHT22;65881;52.438;16.744;2024-03-29T10:01:27;16.00;51.30
76936;DHT22;65881;52.438;16.744;2024-03-29T10:03:53;16.00;50.80
76936;DHT22;65881;52.438;16.744;2024-03-29T10:06:23;16.20;51.90
76936;DHT22;65881;52.438;16.744;2024-03-29T10:08:51;16.40;50.30
76936;DHT22;65881;52.438;16.744;2024-03-29T10:11:20;16.40;49.50
76936;DHT22;65881;52.438;16.744;2024-03-29T10:13:46;16.10;51.30
76936;DHT22;65881;52.438;16.744;2024-03-29T10:16:13;16.00;50.80
76936;DHT22;65881;52.438;16.744;2024-03-29T10:18:41;15.90;50.70
76936;DHT22;65881;52.438;16.744;2024-03-29T10:21:09;15.60;50.10
76936;DHT22;65881;52.438;16.744;2024-03-29T10:23:35;15.30;51.00
76936;DHT22;65881;52.438;16.744;2024-03-29T10:26:05;15.40;50.90
76936;DHT22;65881;52.438;16.744;2024-03-29T10:28:35;15.40;51.50
76936;DHT22;65881;52.438;16.744;2024-03-29T10:31:03;15.50;50.30
76936;DHT22;65881;52.438;16.744;2024-03-29T10:33:31;15.40;49.50
76936;DHT22;65881;52.438;16.744;2024-03-29T10:36:01;15.40;50.20
76936;DHT22;65881;52.438;16.744;2024-03-29T10:38:30;15.30;50.10
76936;DHT22;65881;52.438;16.744;2024-03-29T10:40:57;15.20;51.50
76936;DHT22;65881;52.438;16.744;2024-03-29T10:43:24;15.30;50.90
76936;DHT22;65881;52.438;16.744;2024-03-29T10:45:50;15.60;51.50
76936;DHT22;65881;52.438;16.744;2024-03-29T10:48:20;15.70;50.60
76936;DHT22;65881;52.438;16.744;2024-03-29T10:50:48;15.90;50.60
76936;DHT22;65881;52.438;16.744;2024-03-29T10:53:17;15.90;49.50
76936;DHT22;65881;52.438;16.744;2024-03-29T10:55:43;15.90;50.50
76936;DHT22;65881;52.438;16.744;2024-03-29T10:58:11;16.40;50.40
76936;DHT22;65881;52.438;16.744;2024-03-29T11:00:47;16.60;48.30
76936;DHT22;65881;52.438;16.744;2024-03-29T11:03:17;16.60;47.20
76936;DHT22;65881;52.438;16.744;2024-03-29T11:05:50;16.40;47.60
76936;DHT22;65881;52.438;16.744;2024-03-29T11:08:23;16.50;49.10
76936;DHT22;65881;52.438;16.744;2024-03-29T11:10:56;16.80;48.80
76936;DHT22;65881;52.438;16.744;2024-03-29T11:16:13;17.00;48.40
76936;DHT22;65881;52.438;16.744;2024-03-29T11:18:42;17.40;48.30
76936;DHT22;65881;52.438;16.744;2024-03-29T11:21:08;17.40;46.80
76936;DHT22;65881;52.438;16.744;2024-03-29T11:23:36;17.20;47.80
76936;DHT22;65881;52.438;16.744;2024-03-29T11:26:02;17.20;45.40
76936;DHT22;65881;52.438;16.744;2024-03-29T11:28:35;17.20;47.00
76936;DHT22;65881;52.438;16.744;2024-03-29T11:31:10;17.00;46.70
76936;DHT22;65881;52.438;16.744;2024-03-29T11:38:44;16.60;45.60
76936;DHT22;65881;52.438;16.744;2024-03-29T11:41:17;16.70;46.30
76936;DHT22;65881;52.438;16.744;2024-03-29T11:43:44;16.60;44.90
76936;DHT22;65881;52.438;16.744;2024-03-29T11:46:11;16.60;46.90
76936;DHT22;65881;52.438;16.744;2024-03-29T11:48:38;16.40;46.50
76936;DHT22;65881;52.438;16.744;2024-03-29T11:51:08;16.40;47.10
76936;DHT22;65881;52.438;16.744;2024-03-29T11:53:35;16.50;47.00
76936;DHT22;65881;52.438;16.744;2024-03-29T11:56:03;16.50;46.20
76936;DHT22;65881;52.438;16.744;2024-03-29T11:58:30;16.50;45.60
76936;DHT22;65881;52.438;16.744;2024-03-29T12:00:57;16.50;44.90
76936;DHT22;65881;52.438;16.744;2024-03-29T12:03:24;16.40;46.20
76936;DHT22;65881;52.438;16.744;2024-03-29T12:05:52;16.10;46.20
76936;DHT22;65881;52.438;16.744;2024-03-29T12:08:23;16.00;48.20
76936;DHT22;65881;52.438;16.744;2024-03-29T12:10:49;16.00;46.60
76936;DHT22;65881;52.438;16.744;2024-03-29T12:13:16;16.00;46.50
76936;DHT22;65881;52.438;16.744;2024-03-29T12:15:43;16.00;45.10
76936;DHT22;65881;52.438;16.744;2024-03-29T12:18:09;15.80;46.50
76936;DHT22;65881;52.438;16.744;2024-03-29T12:20:41;15.90;46.00
76936;DHT22;65881;52.438;16.744;2024-03-29T12:23:09;16.00;46.40
76936;DHT22;65881;52.438;16.744;2024-03-29T12:25:37;16.10;47.00
76936;DHT22;65881;52.438;16.744;2024-03-29T12:28:04;16.30;47.10
76936;DHT22;65881;52.438;16.744;2024-03-29T12:30:30;16.30;45.90
76936;DHT22;65881;52.438;16.744;2024-03-29T12:33:06;16.40;46.80
76936;DHT22;65881;52.438;16.744;2024-03-29T12:35:33;16.20;46.50
76936;DHT22;65881;52.438;16.744;2024-03-29T12:37:59;16.00;45.90
76936;DHT22;65881;52.438;16.744;2024-03-29T12:40:27;16.00;46.20
76936;DHT22;65881;52.438;16.744;2024-03-29T12:42:55;16.10;46.20
76936;DHT22;65881;52.438;16.744;2024-03-29T12:45:22;16.10;45.40
76936;DHT22;65881;52.438;16.744;2024-03-29T12:47:49;16.00;46.50
76936;DHT22;65881;52.438;16.744;2024-03-29T12:50:24;16.00;46.80
76936;DHT22;65881;52.438;16.744;2024-03-29T12:52:54;16.20;47.30
76936;DHT22;65881;52.438;16.744;2024-03-29T12:55:20;16.40;46.50
76936;DHT22;65881;52.438;16.744;2024-03-29T12:57:47;16.60;46.00
76936;DHT22;65881;52.438;16.744;2024-03-29T13:00:13;16.50;43.40
76936;DHT22;65881;52.438;16.744;2024-03-29T13:02:39;16.50;44.70
76936;DHT22;65881;52.438;16.744;2024-03-29T13:05:05;16.60;43.30
76936;DHT22;65881;52.438;16.744;2024-03-29T13:07:33;16.50;42.90
76936;DHT22;65881;52.438;16.744;2024-03-29T13:09:59;16.40;41.70
76936;DHT22;65881;52.438;16.744;2024-03-29T13:12:29;16.00;42.50
76936;DHT22;65881;52.438;16.744;2024-03-29T13:14:56;16.00;43.30
76936;DHT22;65881;52.438;16.744;2024-03-29T13:17:21;16.00;43.30
76936;DHT22;65881;52.438;16.744;2024-03-29T13:19:47;16.00;42.00
76936;DHT22;65881;52.438;16.744;2024-03-29T13:22:14;16.00;42.50
76936;DHT22;65881;52.438;16.744;2024-03-29T13:24:40;16.00;42.60
76936;DHT22;65881;52.438;16.744;2024-03-29T13:27:05;16.00;43.30
76936;DHT22;65881;52.438;16.744;2024-03-29T13:29:31;16.00;43.40
76936;DHT22;65881;52.438;16.744;2024-03-29T13:31:57;16.00;42.50
76936;DHT22;65881;52.438;16.744;2024-03-29T13:34:23;16.00;41.40
76936;DHT22;65881;52.438;16.744;2024-03-29T13:36:48;16.00;41.50
76936;DHT22;65881;52.438;16.744;2024-03-29T13:39:15;15.90;41.80
76936;DHT22;65881;52.438;16.744;2024-03-29T13:41:41;15.90;43.30
76936;DHT22;65881;52.438;16.744;2024-03-29T13:44:07;15.80;42.90
76936;DHT22;65881;52.438;16.744;2024-03-29T13:46:34;15.60;43.00
76936;DHT22;65881;52.438;16.744;2024-03-29T13:49:02;15.60;43.60
76936;DHT22;65881;52.438;16.744;2024-03-29T13:51:30;15.60;44.90
76936;DHT22;65881;52.438;16.744;2024-03-29T13:53:56;15.60;44.50
76936;DHT22;65881;52.438;16.744;2024-03-29T13:56:22;15.70;45.00
76936;DHT22;65881;52.438;16.744;2024-03-29T13:58:48;15.80;45.50
76936;DHT22;65881;52.438;16.744;2024-03-29T14:01:21;15.80;43.90
76936;DHT22;65881;52.438;16.744;2024-03-29T14:03:49;15.80;44.40
76936;DHT22;65881;52.438;16.744;2024-03-29T14:06:15;15.80;45.30
76936;DHT22;65881;52.438;16.744;2024-03-29T14:08:42;15.80;44.00
76936;DHT22;65881;52.438;16.744;2024-03-29T14:11:07;15.90;44.70
76936;DHT22;65881;52.438;16.744;2024-03-29T14:13:33;16.00;44.70
76936;DHT22;65881;52.438;16.744;2024-03-29T14:15:59;16.10;45.10
76936;DHT22;65881;52.438;16.744;2024-03-29T14:18:26;16.40;44.60
76936;DHT22;65881;52.438;16.744;2024-03-29T14:20:51;16.50;44.90
76936;DHT22;65881;52.438;16.744;2024-03-29T14:23:20;16.70;44.60
76936;DHT22;65881;52.438;16.744;2024-03-29T14:25:49;16.70;44.80
76936;DHT22;65881;52.438;16.744;2024-03-29T14:28:16;16.80;44.50
76936;DHT22;65881;52.438;16.744;2024-03-29T14:30:42;16.80;44.80
76936;DHT22;65881;52.438;16.744;2024-03-29T14:33:08;16.80;45.80
76936;DHT22;65881;52.438;16.744;2024-03-29T14:35:40;16.90;45.00
76936;DHT22;65881;52.438;16.744;2024-03-29T14:38:05;17.00;45.10
76936;DHT22;65881;52.438;16.744;2024-03-29T14:40:33;17.00;41.50
76936;DHT22;65881;52.438;16.744;2024-03-29T14:43:00;16.90;41.30
76936;DHT22;65881;52.438;16.744;2024-03-29T14:45:26;16.80;42.20
76936;DHT22;65881;52.438;16.744;2024-03-29T14:47:52;16.70;42.50
76936;DHT22;65881;52.438;16.744;2024-03-29T14:50:18;16.60;41.90
76936;DHT22;65881;52.438;16.744;2024-03-29T14:52:44;16.50;43.00
76936;DHT22;65881;52.438;16.744;2024-03-29T14:55:10;16.50;42.00
76936;DHT22;65881;52.438;16.744;2024-03-29T14:57:35;16.50;41.80
76936;DHT22;65881;52.438;16.744;2024-03-29T15:00:01;16.40;40.80
76936;DHT22;65881;52.438;16.744;2024-03-29T15:02:26;16.40;42.20
76936;DHT22;65881;52.438;16.744;2024-03-29T15:04:53;16.40;43.00
76936;DHT22;65881;52.438;16.744;2024-03-29T15:07:19;16.40;42.00
76936;DHT22;65881;52.438;16.744;2024-03-29T15:09:44;16.40;43.10
76936;DHT22;65881;52.438;16.744;2024-03-29T15:12:11;16.50;43.10
76936;DHT22;65881;52.438;16.744;2024-03-29T15:14:38;16.60;40.60
76936;DHT22;65881;52.438;16.744;2024-03-29T15:17:04;16.70;41.90
76936;DHT22;65881;52.438;16.744;2024-03-29T15:19:34;16.70;42.50
76936;DHT22;65881;52.438;16.744;2024-03-29T15:22:00;16.80;41.70
76936;DHT22;65881;52.438;16.744;2024-03-29T15:24:26;16.70;42.30
76936;DHT22;65881;52.438;16.744;2024-03-29T15:26:51;16.70;42.60
76936;DHT22;65881;52.438;16.744;2024-03-29T15:29:26;16.70;42.90